Latest Weather Observations for Mandurah

IDW60901

Issued at 9:11 pm WST Friday 15 November 2019 (issued every 10 minutes, with the page automatically refreshed every 10 minutes)

About weather observations | Map of Perth area stations | Latest observations for Perth area | Other Formats
Station Details ID: 009977 Name: MANDURAH Lat: -32.52 Lon: 115.71 Height: 3.0 m
Data from the previous 72 hours. | See also: Recent months at Mandurah
Date/Time
WST
Temp
°C
App
Temp
°C
Dew
Point
°C
Rel
Hum
%
Delta-T
°C
Wind Press
QNH
hPa
Press
MSL
hPa
Rain since
9am
mm
Dir  Spd
km/h
Gust
km/h
Spd
kts
Gust
kts
15/09:00pm 26.6 25.9 16.5 54 6.2 SSE 15 20 8 11 1012.7 1012.7 0.0
15/08:30pm 26.7 26.7 16.3 53 6.4 S 11 17 6 9 1012.7 1012.7 0.0
15/08:00pm 27.0 27.3 16.9 54 6.3 SSE 11 15 6 8 1012.4 1012.4 0.0
15/07:30pm 27.6 27.1 15.9 49 7.2 S 13 17 7 9 1012.2 1012.2 0.0
15/07:00pm 28.2 27.4 15.1 44 8.0 S 13 20 7 11 1012.0 1012.0 0.0
15/06:30pm 29.2 28.4 15.0 42 8.7 S 13 22 7 12 1011.7 1011.7 0.0
15/06:00pm 30.2 28.9 14.7 39 9.4 S 15 20 8 11 1011.4 1011.4 0.0
15/05:30pm 31.2 30.1 14.4 36 10.2 S 13 20 7 11 1011.3 1011.3 0.0
15/05:00pm 32.0 30.6 14.6 34 10.7 SSW 15 24 8 13 1011.3 1011.3 0.0
15/04:30pm 32.1 30.6 14.3 34 10.9 SSW 15 24 8 13 1011.5 1011.5 0.0
15/04:00pm 32.1 30.6 14.3 34 10.9 SSW 15 24 8 13 1011.6 1011.6 0.0
15/03:30pm 32.9 31.3 14.0 32 11.5 SSW 15 20 8 11 1011.7 1011.7 0.0
15/03:00pm 33.3 32.9 15.3 34 11.2 SW 11 19 6 10 1011.6 1011.6 0.0
15/02:30pm 33.0 32.9 15.0 33 11.1 WSW 9 17 5 9 1012.0 1012.0 0.0
15/02:00pm 35.3 34.7 12.3 25 13.8 WSW 7 13 4 7 1012.2 1012.2 0.0
15/01:30pm 36.1 34.9 9.6 20 15.3 WSW 6 13 3 7 1012.6 1012.6 0.0
15/01:00pm 37.0 35.4 7.9 17 16.4 E 6 11 3 6 1012.9 1012.9 0.0
15/12:30pm 35.7 33.7 8.5 19 15.4 E 9 19 5 10 1013.0 1013.0 0.0
15/12:00pm 34.6 31.2 9.1 21 14.5 ESE 17 28 9 15 1012.6 1012.6 0.0
15/11:30am 33.3 29.7 10.0 24 13.4 ESE 19 30 10 16 1012.9 1012.9 0.0
15/11:00am 31.9 29.1 10.0 26 12.5 ESE 15 24 8 13 1013.6 1013.6 0.0
15/10:30am 30.2 26.4 9.7 28 11.5 SE 20 28 11 15 1013.9 1013.9 0.0
15/10:00am 29.2 25.8 9.3 29 11.1 SE 17 26 9 14 1014.7 1014.7 0.0
15/09:30am 28.1 25.4 8.9 30 10.6 SE 13 17 7 9 1015.2 1015.2 0.0
15/09:00am 27.0 23.9 8.9 32 9.9 ESE 15 22 8 12 1015.3 1015.3 0.0
15/08:30am 25.4 23.0 10.1 38 8.5 SE 13 19 7 10 1015.8 1015.8 0.0
15/08:00am 23.3 21.3 8.6 39 7.8 SSE 9 17 5 9 1016.0 1016.0 0.0
15/07:30am 22.2 19.8 10.0 46 6.6 SE 13 20 7 11 1015.9 1015.9 0.0
15/07:00am 20.8 18.8 10.0 50 5.8 ESE 11 17 6 9 1015.7 1015.7 0.0
15/06:30am 20.3 18.4 10.4 53 5.4 SE 11 17 6 9 1015.7 1015.7 0.0
15/06:00am 19.4 17.3 9.9 54 5.1 SE 11 15 6 8 1015.7 1015.7 0.0
15/05:30am 19.0 16.5 9.8 55 4.9 ESE 13 20 7 11 1015.5 1015.5 0.0
15/05:00am 19.2 17.6 10.2 56 4.8 SE 9 13 5 7 1015.3 1015.3 0.0
15/04:30am 19.6 17.9 9.8 53 5.2 SE 9 17 5 9 1015.2 1015.2 0.0
15/04:00am 20.0 18.3 9.9 52 5.4 SE 9 15 5 8 1015.0 1015.0 0.0
15/03:30am 20.4 18.7 9.9 51 5.6 ESE 9 13 5 7 1014.8 1014.8 0.0
15/03:00am 20.9 18.6 10.4 51 5.7 ESE 13 20 7 11 1014.5 1014.5 0.0
15/02:30am 21.5 19.6 10.6 50 6.0 ESE 11 19 6 10 1014.7 1014.7 0.0
15/02:00am 22.2 20.1 11.3 50 6.1 SE 13 17 7 9 1014.4 1014.4 0.0
15/01:30am 22.6 21.0 11.7 50 6.1 ESE 11 17 6 9 1014.3 1014.3 0.0
15/01:00am 23.4 21.1 11.8 48 6.5 ESE 15 20 8 11 1014.3 1014.3 0.0
15/12:30am 23.9 20.8 11.6 46 6.9 ESE 19 32 10 17 1014.4 1014.4 0.0
15/12:00am 24.9 21.9 12.5 46 7.1 ESE 20 33 11 18 1014.4 1014.4 0.0
 
Date/Time
WST
Temp
°C
App
Temp
°C
Dew
Point
°C
Rel
Hum
%
Delta-T
°C
Wind Press
QNH
hPa
Press
MSL
hPa
Rain since
9am
mm
Dir  Spd
km/h
Gust
km/h
Spd
kts
Gust
kts
14/11:30pm 25.4 24.5 12.6 45 7.4 SE 9 15 5 8 1014.2 1014.2 0.0
14/11:00pm 25.5 24.3 12.7 45 7.4 SE 11 17 6 9 1014.2 1014.2 0.0
14/10:30pm 25.1 24.0 15.4 55 5.9 SSE 15 24 8 13 1013.9 1013.9 0.0
14/10:00pm 25.1 24.1 15.7 56 5.7 SSE 15 24 8 13 1013.9 1013.9 0.0
14/09:30pm 25.5 24.8 16.4 57 5.6 SSE 15 22 8 12 1013.9 1013.9 0.0
14/09:00pm 25.6 24.9 16.5 57 5.6 S 15 20 8 11 1013.6 1013.6 0.0
14/08:30pm 26.1 24.7 15.5 52 6.4 S 17 22 9 12 1013.4 1013.4 0.0
14/08:00pm 26.6 25.5 15.3 50 6.9 S 15 22 8 12 1013.1 1013.1 0.0
14/07:30pm 27.1 25.4 14.8 47 7.4 S 17 26 9 14 1012.8 1012.8 0.0
14/07:00pm 27.2 25.5 14.6 46 7.6 S 17 30 9 16 1012.6 1012.6 0.0
14/06:30pm 28.4 26.4 13.9 41 8.7 S 17 28 9 15 1012.4 1012.4 0.0
14/06:00pm 29.1 26.8 14.1 40 9.0 S 19 28 10 15 1012.4 1012.4 0.0
14/05:30pm 29.9 27.4 13.6 36 9.7 S 19 30 10 16 1012.3 1012.3 0.0
14/05:00pm 30.6 27.9 13.4 35 10.3 S 20 32 11 17 1012.5 1012.5 0.0
14/04:30pm 31.4 28.6 13.2 33 10.9 S 20 33 11 18 1012.5 1012.5 0.0
14/04:00pm 32.2 29.2 11.9 29 11.9 S 19 32 10 17 1012.7 1012.7 0.0
14/03:30pm 32.5 29.6 12.2 29 12.0 SSW 19 30 10 16 1013.0 1013.0 0.0
14/03:00pm 33.0 29.9 11.5 27 12.6 S 19 30 10 16 1013.4 1013.4 0.0
14/02:30pm 33.5 30.7 11.4 26 13.0 S 17 26 9 14 1013.7 1013.7 0.0
14/02:00pm 33.4 30.2 10.1 24 13.4 S 17 28 9 15 1014.1 1014.1 0.0
14/01:30pm 32.4 29.0 10.4 26 12.7 SSW 19 30 10 16 1014.5 1014.5 0.0
14/01:00pm 32.6 30.3 11.7 28 12.3 SSW 15 24 8 13 1014.9 1014.9 0.0
14/12:30pm 32.5 30.7 12.2 29 12.0 S 13 19 7 10 1015.0 1015.0 0.0
14/12:00pm 31.9 30.3 11.7 29 11.8 WSW 11 15 6 8 1015.2 1015.2 0.0
14/11:30am 32.2 30.8 10.8 27 12.4 WSW 9 13 5 7 1015.4 1015.4 0.0
14/11:00am 33.1 31.8 9.2 23 13.5 WNW 6 9 3 5 1015.6 1015.6 0.0
14/10:30am 32.4 30.9 5.1 18 14.4 SSW 2 2 1 1 1015.9 1015.9 0.0
14/10:00am 31.1 32.3 13.8 34 10.4 CALM 0 2 0 1 1016.0 1016.0 0.0
14/09:30am 29.1 28.8 11.6 33 10.1 SSW 4 6 2 3 1016.2 1016.2 0.0
14/09:00am 27.8 27.3 12.2 38 9.0 SSW 6 7 3 4 1016.5 1016.5 0.0
14/08:30am 26.6 27.0 12.6 42 8.1 SSE 2 4 1 2 1016.5 1016.5 0.0
14/08:00am 24.8 24.0 11.7 44 7.4 SSE 7 11 4 6 1016.6 1016.6 0.0
14/07:30am 23.3 22.4 12.6 51 6.1 SSE 9 13 5 7 1016.7 1016.7 0.0
14/07:00am 22.3 22.0 13.4 57 5.1 SSE 7 13 4 7 1016.8 1016.8 0.0
14/06:30am 21.8 21.9 13.9 61 4.6 SSE 6 9 3 5 1016.6 1016.6 0.0
14/06:00am 20.9 20.9 13.6 63 4.2 S 6 9 3 5 1016.4 1016.4 0.0
14/05:30am 20.6 20.2 13.1 62 4.3 SSE 7 11 4 6 1016.2 1016.2 0.0
14/05:00am 20.9 20.4 12.8 60 4.6 SSE 7 9 4 5 1015.9 1015.9 0.0
14/04:30am 21.0 20.7 13.2 61 4.5 SSE 7 11 4 6 1015.6 1015.6 0.0
14/04:00am 21.2 20.5 13.1 60 4.6 SSE 9 15 5 8 1015.3 1015.3 0.0
14/03:30am 21.3 20.6 13.2 60 4.6 SSE 9 15 5 8 1015.4 1015.4 0.0
14/03:00am 21.5 21.0 13.7 61 4.5 SSE 9 15 5 8 1015.5 1015.5 0.0
14/02:30am 21.8 21.0 13.9 61 4.6 SSE 11 15 6 8 1015.5 1015.5 0.0
14/02:00am 21.8 20.9 13.7 60 4.7 SSE 11 15 6 8 1015.7 1015.7 0.0
14/01:30am 21.6 21.0 14.5 64 4.2 SSE 11 17 6 9 1015.8 1015.8 0.0
14/01:00am 21.6 20.8 14.0 62 4.4 SSE 11 17 6 9 1016.1 1016.1 0.0
14/12:30am 21.8 20.9 13.7 60 4.7 SSE 11 15 6 8 1016.6 1016.6 0.0
14/12:00am 21.9 20.9 13.5 59 4.8 SSE 11 17 6 9 1016.9 1016.9 0.0
 
Date/Time
WST
Temp
°C
App
Temp
°C
Dew
Point
°C
Rel
Hum
%
Delta-T
°C
Wind Press
QNH
hPa
Press
MSL
hPa
Rain since
9am
mm
Dir  Spd
km/h
Gust
km/h
Spd
kts
Gust
kts
13/11:30pm 22.4 21.0 13.5 57 5.1 SSE 13 19 7 10 1017.1 1017.1 0.0
13/11:00pm 22.6 20.5 12.3 52 5.8 SSE 15 20 8 11 1017.3 1017.3 0.0
13/10:30pm 23.0 20.9 12.3 51 6.1 SSE 15 22 8 12 1017.5 1017.5 0.0
13/10:00pm 23.4 21.4 12.7 51 6.1 SSE 15 20 8 11 1017.7 1017.7 0.0
13/09:30pm 23.7 21.2 12.4 49 6.5 SSE 17 30 9 16 1017.8 1017.8 0.0
13/09:00pm 24.0 20.7 11.0 44 7.2 SSE 19 26 10 14 1017.7 1017.7 0.0
13/08:30pm 24.4 21.8 12.0 46 7.1 SSE 17 24 9 13 1017.8 1017.8 0.0
13/08:00pm 25.3 23.4 12.9 46 7.2 SSE 15 20 8 11 1017.7 1017.7 0.0
13/07:30pm 26.2 24.1 11.2 39 8.5 SSE 13 20 7 11 1017.5 1017.5 0.0
13/07:00pm 27.0 23.8 9.8 34 9.5 S 17 24 9 13 1017.3 1017.3 0.0
13/06:30pm 27.8 24.8 10.5 34 9.8 S 17 24 9 13 1017.1 1017.1 0.0
13/06:00pm 28.7 25.0 9.4 30 10.7 S 19 30 10 16 1017.0 1017.0 0.0
13/05:30pm 29.5 26.0 10.1 30 11.0 S 19 30 10 16 1016.8 1016.8 0.0
13/05:00pm 30.2 26.6 9.7 28 11.5 SSW 19 30 10 16 1016.8 1016.8 0.0
13/04:30pm 31.1 28.2 11.0 29 11.6 SSW 17 24 9 13 1016.8 1016.8 0.0
13/04:00pm 31.8 28.4 10.5 27 12.2 SSW 19 26 10 14 1017.0 1017.0 0.0
13/03:30pm 32.5 29.1 9.3 24 13.1 SSW 17 22 9 12 1017.0 1017.0 0.0
13/03:00pm 32.8 30.7 9.6 24 13.2 SSW 11 20 6 11 1017.3 1017.3 0.0
13/02:30pm 33.0 30.6 8.5 22 13.7 SSW 11 20 6 11 1017.5 1017.5 0.0
13/02:00pm 30.9 28.4 12.3 32 10.9 WSW 17 24 9 13 1017.9 1017.9 0.0
13/01:30pm 32.7 31.2 11.8 28 12.3 SSW 11 15 6 8 1018.4 1018.4 0.0
13/01:00pm 29.6 28.5 14.2 39 9.3 W 13 19 7 10 1018.7 1018.7 0.0
13/12:30pm 29.5 28.6 13.7 38 9.5 W 11 15 6 8 1019.3 1019.3 0.0
13/12:00pm 29.6 27.9 11.2 32 10.6 WNW 11 13 6 7 1019.5 1019.5 0.0
13/11:30am 28.7 27.3 10.8 33 10.2 WNW 9 11 5 6 1019.8 1019.8 0.0
13/11:00am 28.3 27.7 11.8 36 9.5 NW 6 7 3 4 1020.0 1020.0 0.0
13/10:30am 29.0 28.2 11.1 33 10.2 NNE 6 9 3 5 1020.2 1020.2 0.0
13/10:00am 27.7 26.7 10.4 34 9.7 NNE 6 11 3 6 1020.6 1020.6 0.0
13/09:30am 26.9 24.7 7.9 30 10.2 ENE 9 15 5 8 1020.8 1020.8 0.0
13/09:00am 25.6 23.4 7.7 32 9.5 E 9 17 5 9 1020.9 1020.9 0.0
13/08:30am 23.2 21.7 8.5 39 7.8 ESE 6 9 3 5 1021.2 1021.2 0.0
13/08:00am 21.4 19.2 8.0 42 7.0 E 9 15 5 8 1021.3 1021.3 0.0
13/07:30am 19.5 17.3 7.9 47 6.0 E 9 15 5 8 1021.4 1021.4 0.0
13/07:00am 18.4 15.7 7.5 49 5.5 ESE 11 20 6 11 1021.4 1021.4 0.0
13/06:30am 17.5 14.5 7.5 52 5.0 ESE 13 24 7 13 1021.6 1021.6 0.0
13/06:00am 16.9 13.4 7.3 53 4.8 E 15 22 8 12 1021.6 1021.6 0.0
13/05:30am 16.7 14.0 7.4 54 4.6 ESE 11 17 6 9 1021.2 1021.2 0.0
13/05:00am 16.7 13.6 7.1 53 4.8 ESE 13 24 7 13 1021.1 1021.1 0.0
13/04:30am 17.1 14.7 7.2 52 4.9 ESE 9 19 5 10 1020.8 1020.8 0.0
13/04:00am 17.4 15.0 7.2 51 5.1 ESE 9 15 5 8 1020.9 1020.9 0.0
13/03:30am 17.9 15.1 7.0 49 5.4 ESE 11 17 6 9 1020.8 1020.8 0.0
13/03:00am 18.3 15.9 6.8 47 5.7 ESE 9 17 5 9 1021.0 1021.0 0.0
13/02:30am 18.8 16.5 7.3 47 5.8 ESE 9 13 5 7 1020.9 1020.9 0.0
13/02:00am 19.4 17.4 7.2 45 6.2 SE 7 11 4 6 1021.0 1021.0 0.0
13/01:30am 20.3 17.4 6.3 40 7.0 SE 11 17 6 9 1020.6 1020.6 0.0
13/01:00am 20.7 17.2 5.5 37 7.5 ESE 13 20 7 11 1020.8 1020.8 0.0
13/12:30am 21.3 17.7 5.2 35 8.0 ESE 13 22 7 12 1020.9 1020.9 0.0
13/12:00am 21.7 18.4 4.7 33 8.3 ESE 11 19 6 10 1021.0 1021.0 0.0
 
Date/Time
WST
Temp
°C
App
Temp
°C
Dew
Point
°C
Rel
Hum
%
Delta-T
°C
Wind Press
QNH
hPa
Press
MSL
hPa
Rain since
9am
mm
Dir  Spd
km/h
Gust
km/h
Spd
kts
Gust
kts
12/11:30pm 22.4 18.8 4.9 32 8.7 ESE 13 20 7 11 1021.0 1021.0 0.0
12/11:00pm 22.4 19.4 5.8 34 8.3 ESE 11 17 6 9 1021.0 1021.0 0.0
12/10:30pm 22.5 19.9 5.9 34 8.4 ESE 9 15 5 8 1021.2 1021.2 0.0
12/10:00pm 23.1 20.7 6.8 35 8.4 SE 9 13 5 7 1021.5 1021.5 0.0
12/09:30pm 23.4 20.8 6.2 33 8.8 SE 9 15 5 8 1021.7 1021.7 0.0

Latest Capital City Observations: Canberra | Sydney | Melbourne | Brisbane | Adelaide | Perth | Hobart | Darwin

Other formats

Comma delimited format used in spreadsheet applications
http://www.bom.gov.au/fwo/IDW60901/IDW60901.94605.axf

JavaScript Object Notation format (JSON) in row-major order
http://www.bom.gov.au/fwo/IDW60901/IDW60901.94605.json

Data quality

Most of these data are generated automatically and are frequently updated. Quality checks on data are not normally performed. It is possible for incorrect values to appear. Refer to information at About Latest Weather Observations and please check the disclaimer before using these data.